sensor_id;sensor_type;location;lat;lon;timestamp;temperature;humidity
67364;HTU21D;54250;45.572;38.086;2022-11-20T00:01:19;6.70;99.06
67364;HTU21D;54250;45.572;38.086;2022-11-20T00:03:46;6.68;99.01
67364;HTU21D;54250;45.572;38.086;2022-11-20T00:06:14;6.67;98.91
67364;HTU21D;54250;45.572;38.086;2022-11-20T00:08:41;6.59;98.90
67364;HTU21D;54250;45.572;38.086;2022-11-20T00:11:09;6.60;98.95
67364;HTU21D;54250;45.572;38.086;2022-11-20T00:13:36;6.55;98.74
67364;HTU21D;54250;45.572;38.086;2022-11-20T00:16:03;6.49;98.85
67364;HTU21D;54250;45.572;38.086;2022-11-20T00:18:30;6.43;98.96
67364;HTU21D;54250;45.572;38.086;2022-11-20T00:21:26;6.36;98.72
67364;HTU21D;54250;45.572;38.086;2022-11-20T00:23:55;6.31;98.89
67364;HTU21D;54250;45.572;38.086;2022-11-20T00:26:23;6.29;98.99
67364;HTU21D;54250;45.572;38.086;2022-11-20T00:28:54;6.31;98.87
67364;HTU21D;54250;45.572;38.086;2022-11-20T00:31:21;6.35;98.73
67364;HTU21D;54250;45.572;38.086;2022-11-20T00:33:47;6.37;98.42
67364;HTU21D;54250;45.572;38.086;2022-11-20T00:36:19;6.31;98.36
67364;HTU21D;54250;45.572;38.086;2022-11-20T00:38:45;6.27;98.42
67364;HTU21D;54250;45.572;38.086;2022-11-20T00:41:14;6.20;98.39
67364;HTU21D;54250;45.572;38.086;2022-11-20T00:43:42;6.17;98.52
67364;HTU21D;54250;45.572;38.086;2022-11-20T00:46:12;6.10;98.37
67364;HTU21D;54250;45.572;38.086;2022-11-20T00:48:38;6.02;98.64
67364;HTU21D;54250;45.572;38.086;2022-11-20T00:51:04;6.04;98.68
67364;HTU21D;54250;45.572;38.086;2022-11-20T00:53:30;6.09;98.51
67364;HTU21D;54250;45.572;38.086;2022-11-20T00:55:59;6.11;98.24
67364;HTU21D;54250;45.572;38.086;2022-11-20T00:58:29;6.11;98.27
67364;HTU21D;54250;45.572;38.086;2022-11-20T01:01:06;6.11;98.08
67364;HTU21D;54250;45.572;38.086;2022-11-20T01:03:41;6.05;98.20
67364;HTU21D;54250;45.572;38.086;2022-11-20T01:06:11;5.99;98.39
67364;HTU21D;54250;45.572;38.086;2022-11-20T01:08:38;5.92;98.54
67364;HTU21D;54250;45.572;38.086;2022-11-20T01:11:07;5.90;98.61
67364;HTU21D;54250;45.572;38.086;2022-11-20T01:13:35;5.91;98.53
67364;HTU21D;54250;45.572;38.086;2022-11-20T01:16:08;5.90;98.42
67364;HTU21D;54250;45.572;38.086;2022-11-20T01:18:35;5.89;98.49
67364;HTU21D;54250;45.572;38.086;2022-11-20T01:21:09;5.93;98.39
67364;HTU21D;54250;45.572;38.086;2022-11-20T01:23:37;5.95;98.29
67364;HTU21D;54250;45.572;38.086;2022-11-20T01:26:05;5.97;98.17
67364;HTU21D;54250;45.572;38.086;2022-11-20T01:28:32;6.02;98.12
67364;HTU21D;54250;45.572;38.086;2022-11-20T01:30:58;6.01;98.00
67364;HTU21D;54250;45.572;38.086;2022-11-20T01:33:24;5.96;98.06
67364;HTU21D;54250;45.572;38.086;2022-11-20T01:35:51;5.92;98.17
67364;HTU21D;54250;45.572;38.086;2022-11-20T01:38:17;5.89;98.31
67364;HTU21D;54250;45.572;38.086;2022-11-20T01:40:53;5.85;98.52
67364;HTU21D;54250;45.572;38.086;2022-11-20T01:43:19;5.93;98.37
67364;HTU21D;54250;45.572;38.086;2022-11-20T01:46:02;5.93;98.27
67364;HTU21D;54250;45.572;38.086;2022-11-20T01:51:01;5.95;98.37
67364;HTU21D;54250;45.572;38.086;2022-11-20T01:53:32;5.98;98.36
67364;HTU21D;54250;45.572;38.086;2022-11-20T01:56:01;6.05;98.43
67364;HTU21D;54250;45.572;38.086;2022-11-20T01:58:34;6.19;98.09
67364;HTU21D;54250;45.572;38.086;2022-11-20T02:01:01;6.20;97.87
67364;HTU21D;54250;45.572;38.086;2022-11-20T02:03:28;6.15;98.02
67364;HTU21D;54250;45.572;38.086;2022-11-20T02:08:26;6.20;98.17
67364;HTU21D;54250;45.572;38.086;2022-11-20T02:10:52;6.20;98.02
67364;HTU21D;54250;45.572;38.086;2022-11-20T02:13:18;6.15;98.12
67364;HTU21D;54250;45.572;38.086;2022-11-20T02:16:03;6.11;98.26
67364;HTU21D;54250;45.572;38.086;2022-11-20T02:18:29;6.05;98.32
67364;HTU21D;54250;45.572;38.086;2022-11-20T02:21:07;6.02;98.51
67364;HTU21D;54250;45.572;38.086;2022-11-20T02:24:06;5.97;98.48
67364;HTU21D;54250;45.572;38.086;2022-11-20T02:26:39;5.96;98.68
67364;HTU21D;54250;45.572;38.086;2022-11-20T02:29:07;5.96;98.59
67364;HTU21D;54250;45.572;38.086;2022-11-20T02:31:42;5.93;98.55
67364;HTU21D;54250;45.572;38.086;2022-11-20T02:34:09;5.94;98.63
67364;HTU21D;54250;45.572;38.086;2022-11-20T02:36:36;5.97;98.61
67364;HTU21D;54250;45.572;38.086;2022-11-20T02:39:04;6.05;98.52
67364;HTU21D;54250;45.572;38.086;2022-11-20T02:41:37;6.11;98.31
67364;HTU21D;54250;45.572;38.086;2022-11-20T02:44:04;6.16;98.23
67364;HTU21D;54250;45.572;38.086;2022-11-20T02:46:31;6.23;98.16
67364;HTU21D;54250;45.572;38.086;2022-11-20T02:48:57;6.39;98.07
67364;HTU21D;54250;45.572;38.086;2022-11-20T02:51:24;6.52;97.72
67364;HTU21D;54250;45.572;38.086;2022-11-20T02:53:50;6.55;97.55
67364;HTU21D;54250;45.572;38.086;2022-11-20T02:56:16;6.58;97.61
67364;HTU21D;54250;45.572;38.086;2022-11-20T02:58:42;6.61;97.58
67364;HTU21D;54250;45.572;38.086;2022-11-20T03:01:08;6.67;97.58
67364;HTU21D;54250;45.572;38.086;2022-11-20T03:03:34;6.70;97.61
67364;HTU21D;54250;45.572;38.086;2022-11-20T03:06:00;6.79;97.57
67364;HTU21D;54250;45.572;38.086;2022-11-20T03:08:26;6.84;97.49
67364;HTU21D;54250;45.572;38.086;2022-11-20T03:10:52;6.91;97.43
67364;HTU21D;54250;45.572;38.086;2022-11-20T03:13:18;6.99;97.31
67364;HTU21D;54250;45.572;38.086;2022-11-20T03:15:44;7.05;97.24
67364;HTU21D;54250;45.572;38.086;2022-11-20T03:18:10;7.10;97.20
67364;HTU21D;54250;45.572;38.086;2022-11-20T03:20:36;7.16;97.19
67364;HTU21D;54250;45.572;38.086;2022-11-20T03:23:02;7.23;97.14
67364;HTU21D;54250;45.572;38.086;2022-11-20T03:25:28;7.28;97.12
67364;HTU21D;54250;45.572;38.086;2022-11-20T03:27:54;7.32;97.09
67364;HTU21D;54250;45.572;38.086;2022-11-20T03:30:20;7.37;97.08
67364;HTU21D;54250;45.572;38.086;2022-11-20T03:32:47;7.42;97.07
67364;HTU21D;54250;45.572;38.086;2022-11-20T03:35:13;7.46;97.05
67364;HTU21D;54250;45.572;38.086;2022-11-20T03:37:39;7.47;97.07
67364;HTU21D;54250;45.572;38.086;2022-11-20T03:40:05;7.47;97.13
67364;HTU21D;54250;45.572;38.086;2022-11-20T03:42:32;7.47;97.20
67364;HTU21D;54250;45.572;38.086;2022-11-20T03:45:12;7.47;97.24
67364;HTU21D;54250;45.572;38.086;2022-11-20T03:47:39;7.48;97.29
67364;HTU21D;54250;45.572;38.086;2022-11-20T03:50:05;7.49;97.36
67364;HTU21D;54250;45.572;38.086;2022-11-20T03:52:31;7.50;97.36
67364;HTU21D;54250;45.572;38.086;2022-11-20T03:54:57;7.49;97.35
67364;HTU21D;54250;45.572;38.086;2022-11-20T03:57:23;7.48;97.39
67364;HTU21D;54250;45.572;38.086;2022-11-20T03:59:49;7.46;97.40
67364;HTU21D;54250;45.572;38.086;2022-11-20T04:02:15;7.47;97.39
67364;HTU21D;54250;45.572;38.086;2022-11-20T04:04:41;7.48;97.36
67364;HTU21D;54250;45.572;38.086;2022-11-20T04:07:08;7.46;97.36
67364;HTU21D;54250;45.572;38.086;2022-11-20T04:09:34;7.46;97.35
67364;HTU21D;54250;45.572;38.086;2022-11-20T04:12:00;7.46;97.35
67364;HTU21D;54250;45.572;38.086;2022-11-20T04:14:26;7.45;97.33
67364;HTU21D;54250;45.572;38.086;2022-11-20T04:16:52;7.43;97.35
67364;HTU21D;54250;45.572;38.086;2022-11-20T04:19:18;7.42;97.37
67364;HTU21D;54250;45.572;38.086;2022-11-20T04:21:44;7.39;97.41
67364;HTU21D;54250;45.572;38.086;2022-11-20T04:24:11;7.39;97.45
67364;HTU21D;54250;45.572;38.086;2022-11-20T04:26:37;7.40;97.45
67364;HTU21D;54250;45.572;38.086;2022-11-20T04:29:03;7.42;97.38
67364;HTU21D;54250;45.572;38.086;2022-11-20T04:31:31;7.47;97.29
67364;HTU21D;54250;45.572;38.086;2022-11-20T04:34:02;7.52;97.20
67364;HTU21D;54250;45.572;38.086;2022-11-20T04:36:29;7.56;97.19
67364;HTU21D;54250;45.572;38.086;2022-11-20T04:38:58;7.60;97.10
67364;HTU21D;54250;45.572;38.086;2022-11-20T04:41:27;7.65;97.03
67364;HTU21D;54250;45.572;38.086;2022-11-20T04:43:56;7.68;97.04
67364;HTU21D;54250;45.572;38.086;2022-11-20T04:46:26;7.71;97.03
67364;HTU21D;54250;45.572;38.086;2022-11-20T04:48:53;7.74;96.99
67364;HTU21D;54250;45.572;38.086;2022-11-20T04:51:19;7.79;96.95
67364;HTU21D;54250;45.572;38.086;2022-11-20T04:53:45;7.86;96.91
67364;HTU21D;54250;45.572;38.086;2022-11-20T04:56:12;7.94;96.87
67364;HTU21D;54250;45.572;38.086;2022-11-20T04:58:39;8.13;96.75
67364;HTU21D;54250;45.572;38.086;2022-11-20T05:01:10;8.21;96.39
67364;HTU21D;54250;45.572;38.086;2022-11-20T05:03:38;8.16;96.46
67364;HTU21D;54250;45.572;38.086;2022-11-20T05:06:05;8.07;96.76
67364;HTU21D;54250;45.572;38.086;2022-11-20T05:08:32;8.00;97.07
67364;HTU21D;54250;45.572;38.086;2022-11-20T05:11:25;7.96;97.16
67364;HTU21D;54250;45.572;38.086;2022-11-20T05:13:51;7.90;97.27
67364;HTU21D;54250;45.572;38.086;2022-11-20T05:16:22;7.88;97.33
67364;HTU21D;54250;45.572;38.086;2022-11-20T05:18:49;7.88;97.35
67364;HTU21D;54250;45.572;38.086;2022-11-20T05:21:16;7.90;97.29
67364;HTU21D;54250;45.572;38.086;2022-11-20T05:23:43;7.92;97.26
67364;HTU21D;54250;45.572;38.086;2022-11-20T05:26:15;7.93;97.23
67364;HTU21D;54250;45.572;38.086;2022-11-20T05:28:42;7.94;97.26
67364;HTU21D;54250;45.572;38.086;2022-11-20T05:31:14;7.97;97.23
67364;HTU21D;54250;45.572;38.086;2022-11-20T05:33:42;7.99;97.20
67364;HTU21D;54250;45.572;38.086;2022-11-20T05:36:09;8.02;97.25
67364;HTU21D;54250;45.572;38.086;2022-11-20T05:38:36;8.09;97.17
67364;HTU21D;54250;45.572;38.086;2022-11-20T05:41:10;8.14;97.10
67364;HTU21D;54250;45.572;38.086;2022-11-20T05:43:39;8.17;97.10
67364;HTU21D;54250;45.572;38.086;2022-11-20T05:46:06;8.19;97.13
67364;HTU21D;54250;45.572;38.086;2022-11-20T05:48:33;8.20;97.15
67364;HTU21D;54250;45.572;38.086;2022-11-20T05:51:00;8.22;97.17
67364;HTU21D;54250;45.572;38.086;2022-11-20T05:53:27;8.21;97.21
67364;HTU21D;54250;45.572;38.086;2022-11-20T05:56:00;8.21;97.29
67364;HTU21D;54250;45.572;38.086;2022-11-20T05:58:27;8.26;97.36
67364;HTU21D;54250;45.572;38.086;2022-11-20T06:00:54;8.28;97.30
67364;HTU21D;54250;45.572;38.086;2022-11-20T06:03:20;8.31;97.38
67364;HTU21D;54250;45.572;38.086;2022-11-20T06:05:46;8.31;97.25
67364;HTU21D;54250;45.572;38.086;2022-11-20T06:08:13;8.27;97.39
67364;HTU21D;54250;45.572;38.086;2022-11-20T06:10:39;8.27;97.48
67364;HTU21D;54250;45.572;38.086;2022-11-20T06:13:05;8.32;97.45
67364;HTU21D;54250;45.572;38.086;2022-11-20T06:15:31;8.37;97.36
67364;HTU21D;54250;45.572;38.086;2022-11-20T06:17:57;8.44;97.22
67364;HTU21D;54250;45.572;38.086;2022-11-20T06:20:24;8.45;97.11
67364;HTU21D;54250;45.572;38.086;2022-11-20T06:22:51;8.41;97.18
67364;HTU21D;54250;45.572;38.086;2022-11-20T06:25:17;8.42;97.23
67364;HTU21D;54250;45.572;38.086;2022-11-20T06:27:43;8.39;97.25
67364;HTU21D;54250;45.572;38.086;2022-11-20T06:30:09;8.41;97.27
67364;HTU21D;54250;45.572;38.086;2022-11-20T06:32:36;8.41;97.29
67364;HTU21D;54250;45.572;38.086;2022-11-20T06:35:02;8.43;97.25
67364;HTU21D;54250;45.572;38.086;2022-11-20T06:37:29;8.44;97.26
67364;HTU21D;54250;45.572;38.086;2022-11-20T06:39:55;8.46;97.27
67364;HTU21D;54250;45.572;38.086;2022-11-20T06:42:21;8.53;97.22
67364;HTU21D;54250;45.572;38.086;2022-11-20T06:44:47;8.60;97.10
67364;HTU21D;54250;45.572;38.086;2022-11-20T06:47:14;8.62;97.10
67364;HTU21D;54250;45.572;38.086;2022-11-20T06:49:40;8.65;97.17
67364;HTU21D;54250;45.572;38.086;2022-11-20T06:52:06;8.76;97.16
67364;HTU21D;54250;45.572;38.086;2022-11-20T06:54:32;8.86;96.97
67364;HTU21D;54250;45.572;38.086;2022-11-20T06:56:58;8.89;96.89
67364;HTU21D;54250;45.572;38.086;2022-11-20T06:59:24;8.97;96.91
67364;HTU21D;54250;45.572;38.086;2022-11-20T07:01:50;9.15;96.77
67364;HTU21D;54250;45.572;38.086;2022-11-20T07:04:17;9.39;96.46
67364;HTU21D;54250;45.572;38.086;2022-11-20T07:06:43;9.63;95.94
67364;HTU21D;54250;45.572;38.086;2022-11-20T07:09:09;9.82;95.61
67364;HTU21D;54250;45.572;38.086;2022-11-20T07:11:35;9.86;95.46
67364;HTU21D;54250;45.572;38.086;2022-11-20T07:14:01;9.79;95.73
67364;HTU21D;54250;45.572;38.086;2022-11-20T07:16:27;9.68;96.13
67364;HTU21D;54250;45.572;38.086;2022-11-20T07:18:53;9.57;96.49
67364;HTU21D;54250;45.572;38.086;2022-11-20T07:21:19;9.49;96.78
67364;HTU21D;54250;45.572;38.086;2022-11-20T07:23:45;9.41;96.94
67364;HTU21D;54250;45.572;38.086;2022-11-20T07:26:11;9.38;97.03
67364;HTU21D;54250;45.572;38.086;2022-11-20T07:28:38;9.34;97.13
67364;HTU21D;54250;45.572;38.086;2022-11-20T07:31:05;9.31;97.26
67364;HTU21D;54250;45.572;38.086;2022-11-20T07:33:32;9.32;97.29
67364;HTU21D;54250;45.572;38.086;2022-11-20T07:35:59;9.35;97.24
67364;HTU21D;54250;45.572;38.086;2022-11-20T07:38:25;9.42;97.25
67364;HTU21D;54250;45.572;38.086;2022-11-20T07:40:55;9.51;97.10
67364;HTU21D;54250;45.572;38.086;2022-11-20T07:43:23;9.57;96.97
67364;HTU21D;54250;45.572;38.086;2022-11-20T07:45:50;9.62;96.94
67364;HTU21D;54250;45.572;38.086;2022-11-20T07:48:17;9.69;96.98
67364;HTU21D;54250;45.572;38.086;2022-11-20T07:50:43;9.82;96.91
67364;HTU21D;54250;45.572;38.086;2022-11-20T07:53:09;9.91;96.77
67364;HTU21D;54250;45.572;38.086;2022-11-20T07:55:35;10.05;96.69
67364;HTU21D;54250;45.572;38.086;2022-11-20T07:58:01;10.08;96.58
67364;HTU21D;54250;45.572;38.086;2022-11-20T08:00:27;10.08;96.84
67364;HTU21D;54250;45.572;38.086;2022-11-20T08:02:54;10.20;96.82
67364;HTU21D;54250;45.572;38.086;2022-11-20T08:05:20;10.31;96.71
67364;HTU21D;54250;45.572;38.086;2022-11-20T08:07:46;10.35;96.63
67364;HTU21D;54250;45.572;38.086;2022-11-20T08:10:13;10.39;96.80
67364;HTU21D;54250;45.572;38.086;2022-11-20T08:13:00;10.49;96.83
67364;HTU21D;54250;45.572;38.086;2022-11-20T08:15:49;10.46;96.87
67364;HTU21D;54250;45.572;38.086;2022-11-20T08:18:18;10.43;97.08
67364;HTU21D;54250;45.572;38.086;2022-11-20T08:20:44;10.53;97.19
67364;HTU21D;54250;45.572;38.086;2022-11-20T08:23:10;10.62;97.03
67364;HTU21D;54250;45.572;38.086;2022-11-20T08:25:37;10.70;96.84
67364;HTU21D;54250;45.572;38.086;2022-11-20T08:28:06;10.70;96.89
67364;HTU21D;54250;45.572;38.086;2022-11-20T08:30:34;10.72;96.96
67364;HTU21D;54250;45.572;38.086;2022-11-20T08:33:03;10.74;97.07
67364;HTU21D;54250;45.572;38.086;2022-11-20T08:35:33;10.74;97.12
67364;HTU21D;54250;45.572;38.086;2022-11-20T08:38:00;10.78;97.15
67364;HTU21D;54250;45.572;38.086;2022-11-20T08:40:26;10.81;97.17
67364;HTU21D;54250;45.572;38.086;2022-11-20T08:42:52;10.83;97.26
67364;HTU21D;54250;45.572;38.086;2022-11-20T08:45:19;10.90;97.28
67364;HTU21D;54250;45.572;38.086;2022-11-20T08:47:46;10.94;97.19
67364;HTU21D;54250;45.572;38.086;2022-11-20T08:50:13;11.02;97.23
67364;HTU21D;54250;45.572;38.086;2022-11-20T08:52:40;11.12;97.07
67364;HTU21D;54250;45.572;38.086;2022-11-20T08:55:06;11.17;97.01
67364;HTU21D;54250;45.572;38.086;2022-11-20T08:57:33;11.24;96.94
67364;HTU21D;54250;45.572;38.086;2022-11-20T09:00:00;11.24;97.10
67364;HTU21D;54250;45.572;38.086;2022-11-20T09:02:26;11.32;97.10
67364;HTU21D;54250;45.572;38.086;2022-11-20T09:04:52;11.45;96.86
67364;HTU21D;54250;45.572;38.086;2022-11-20T09:07:21;11.57;96.65
67364;HTU21D;54250;45.572;38.086;2022-11-20T09:09:47;11.71;96.47
67364;HTU21D;54250;45.572;38.086;2022-11-20T09:12:14;11.79;96.39
67364;HTU21D;54250;45.572;38.086;2022-11-20T09:14:40;11.91;96.42
67364;HTU21D;54250;45.572;38.086;2022-11-20T09:17:06;12.14;96.20
67364;HTU21D;54250;45.572;38.086;2022-11-20T09:19:33;12.47;95.66
67364;HTU21D;54250;45.572;38.086;2022-11-20T09:21:59;12.95;94.88
67364;HTU21D;54250;45.572;38.086;2022-11-20T09:24:26;13.94;93.41
67364;HTU21D;54250;45.572;38.086;2022-11-20T09:26:53;15.13;90.37
67364;HTU21D;54250;45.572;38.086;2022-11-20T09:29:19;15.80;89.55
67364;HTU21D;54250;45.572;38.086;2022-11-20T09:31:45;16.35;89.14
67364;HTU21D;54250;45.572;38.086;2022-11-20T09:34:11;16.69;88.96
67364;HTU21D;54250;45.572;38.086;2022-11-20T09:36:37;16.84;89.31
67364;HTU21D;54250;45.572;38.086;2022-11-20T09:39:03;16.54;90.02
67364;HTU21D;54250;45.572;38.086;2022-11-20T09:44:54;16.49;92.11
67364;HTU21D;54250;45.572;38.086;2022-11-20T09:55:22;17.46;89.95
67364;HTU21D;54250;45.572;38.086;2022-11-20T09:57:51;16.67;92.26
67364;HTU21D;54250;45.572;38.086;2022-11-20T10:00:18;16.55;93.27
67364;HTU21D;54250;45.572;38.086;2022-11-20T10:03:00;16.34;92.92
67364;HTU21D;54250;45.572;38.086;2022-11-20T10:05:46;15.75;93.80
67364;HTU21D;54250;45.572;38.086;2022-11-20T10:08:24;15.61;94.52
67364;HTU21D;54250;45.572;38.086;2022-11-20T10:11:21;16.15;94.01
67364;HTU21D;54250;45.572;38.086;2022-11-20T10:25:20;17.85;91.45
67364;HTU21D;54250;45.572;38.086;2022-11-20T10:30:30;18.07;91.96
67364;HTU21D;54250;45.572;38.086;2022-11-20T10:33:17;18.47;90.86
67364;HTU21D;54250;45.572;38.086;2022-11-20T10:38:43;18.14;91.34
67364;HTU21D;54250;45.572;38.086;2022-11-20T10:41:19;18.24;90.97
67364;HTU21D;54250;45.572;38.086;2022-11-20T10:44:04;18.33;90.71
67364;HTU21D;54250;45.572;38.086;2022-11-20T10:46:40;18.33;91.19
67364;HTU21D;54250;45.572;38.086;2022-11-20T10:49:16;18.41;91.08
67364;HTU21D;54250;45.572;38.086;2022-11-20T10:54:57;17.61;91.89
67364;HTU21D;54250;45.572;38.086;2022-11-20T11:00:19;16.61;93.78
67364;HTU21D;54250;45.572;38.086;2022-11-20T11:02:52;16.13;94.29
67364;HTU21D;54250;45.572;38.086;2022-11-20T11:07:55;15.54;95.12
67364;HTU21D;54250;45.572;38.086;2022-11-20T11:10:57;15.37;95.16
67364;HTU21D;54250;45.572;38.086;2022-11-20T11:13:28;15.23;95.07
67364;HTU21D;54250;45.572;38.086;2022-11-20T11:15:55;15.14;95.10
67364;HTU21D;54250;45.572;38.086;2022-11-20T11:18:30;15.06;94.97
67364;HTU21D;54250;45.572;38.086;2022-11-20T11:21:00;14.95;94.92
67364;HTU21D;54250;45.572;38.086;2022-11-20T11:23:33;14.87;94.86
67364;HTU21D;54250;45.572;38.086;2022-11-20T11:26:01;14.79;94.95
67364;HTU21D;54250;45.572;38.086;2022-11-20T11:28:28;14.69;95.02
67364;HTU21D;54250;45.572;38.086;2022-11-20T11:30:55;14.59;95.12
67364;HTU21D;54250;45.572;38.086;2022-11-20T11:33:26;14.53;95.17
67364;HTU21D;54250;45.572;38.086;2022-11-20T11:36:02;14.49;95.25
67364;HTU21D;54250;45.572;38.086;2022-11-20T11:38:39;14.43;95.23
67364;HTU21D;54250;45.572;38.086;2022-11-20T11:41:12;14.42;95.25
67364;HTU21D;54250;45.572;38.086;2022-11-20T11:43:53;14.47;95.16
67364;HTU21D;54250;45.572;38.086;2022-11-20T11:46:39;14.53;95.12
67364;HTU21D;54250;45.572;38.086;2022-11-20T11:54:20;14.77;94.73
67364;HTU21D;54250;45.572;38.086;2022-11-20T11:56:48;14.81;94.72
67364;HTU21D;54250;45.572;38.086;2022-11-20T11:59:28;14.80;94.72
67364;HTU21D;54250;45.572;38.086;2022-11-20T12:01:59;14.77;94.88
67364;HTU21D;54250;45.572;38.086;2022-11-20T12:04:46;14.74;94.95
67364;HTU21D;54250;45.572;38.086;2022-11-20T12:07:39;14.71;95.04
67364;HTU21D;54250;45.572;38.086;2022-11-20T12:10:19;14.67;95.22
67364;HTU21D;54250;45.572;38.086;2022-11-20T12:13:02;14.60;95.38
67364;HTU21D;54250;45.572;38.086;2022-11-20T12:15:32;14.57;95.51
67364;HTU21D;54250;45.572;38.086;2022-11-20T12:18:00;14.55;95.58
67364;HTU21D;54250;45.572;38.086;2022-11-20T12:20:31;14.54;95.59
67364;HTU21D;54250;45.572;38.086;2022-11-20T12:23:09;14.55;95.53
67364;HTU21D;54250;45.572;38.086;2022-11-20T12:25:38;14.56;95.52
67364;HTU21D;54250;45.572;38.086;2022-11-20T12:31:20;14.54;95.58
67364;HTU21D;54250;45.572;38.086;2022-11-20T12:39:41;14.54;95.63
67364;HTU21D;54250;45.572;38.086;2022-11-20T12:49:00;14.56;95.68
67364;HTU21D;54250;45.572;38.086;2022-11-20T12:51:50;14.56;95.75
67364;HTU21D;54250;45.572;38.086;2022-11-20T12:54:40;14.56;95.80
67364;HTU21D;54250;45.572;38.086;2022-11-20T13:05:37;14.63;95.81
67364;HTU21D;54250;45.572;38.086;2022-11-20T13:08:23;14.59;95.90
67364;HTU21D;54250;45.572;38.086;2022-11-20T13:14:00;14.44;96.26
67364;HTU21D;54250;45.572;38.086;2022-11-20T13:19:17;14.36;96.46
67364;HTU21D;54250;45.572;38.086;2022-11-20T13:21:47;14.32;96.45
67364;HTU21D;54250;45.572;38.086;2022-11-20T13:26:46;14.20;96.62
67364;HTU21D;54250;45.572;38.086;2022-11-20T13:29:17;14.12;96.72
67364;HTU21D;54250;45.572;38.086;2022-11-20T13:31:45;14.06;96.84
67364;HTU21D;54250;45.572;38.086;2022-11-20T13:34:24;14.00;96.91
67364;HTU21D;54250;45.572;38.086;2022-11-20T13:36:54;13.92;96.94
67364;HTU21D;54250;45.572;38.086;2022-11-20T13:39:28;13.80;97.08
67364;HTU21D;54250;45.572;38.086;2022-11-20T13:42:00;13.70;97.26
67364;HTU21D;54250;45.572;38.086;2022-11-20T13:46:58;13.55;97.39
67364;HTU21D;54250;45.572;38.086;2022-11-20T13:49:33;13.48;97.37
67364;HTU21D;54250;45.572;38.086;2022-11-20T13:57:44;13.17;97.54
67364;HTU21D;54250;45.572;38.086;2022-11-20T14:00:22;13.06;97.74
67364;HTU21D;54250;45.572;38.086;2022-11-20T14:03:18;13.00;97.72
67364;HTU21D;54250;45.572;38.086;2022-11-20T14:06:11;12.96;97.64
67364;HTU21D;54250;45.572;38.086;2022-11-20T14:08:48;12.92;97.68
67364;HTU21D;54250;45.572;38.086;2022-11-20T14:14:02;12.82;97.55
67364;HTU21D;54250;45.572;38.086;2022-11-20T14:16:31;12.82;97.51
67364;HTU21D;54250;45.572;38.086;2022-11-20T14:21:51;12.76;97.51
67364;HTU21D;54250;45.572;38.086;2022-11-20T14:24:22;12.73;97.46
67364;HTU21D;54250;45.572;38.086;2022-11-20T14:26:49;12.72;97.47
67364;HTU21D;54250;45.572;38.086;2022-11-20T14:29:27;12.67;97.45
67364;HTU21D;54250;45.572;38.086;2022-11-20T14:31:55;12.62;97.48
67364;HTU21D;54250;45.572;38.086;2022-11-20T14:34:24;12.55;97.46
67364;HTU21D;54250;45.572;38.086;2022-11-20T14:36:57;12.41;97.64
67364;HTU21D;54250;45.572;38.086;2022-11-20T14:39:36;12.21;97.83
67364;HTU21D;54250;45.572;38.086;2022-11-20T14:42:15;12.04;98.03
67364;HTU21D;54250;45.572;38.086;2022-11-20T14:44:42;11.90;98.39
67364;HTU21D;54250;45.572;38.086;2022-11-20T14:47:12;11.85;98.45
67364;HTU21D;54250;45.572;38.086;2022-11-20T14:49:39;11.83;98.35
67364;HTU21D;54250;45.572;38.086;2022-11-20T14:52:13;11.81;98.05
67364;HTU21D;54250;45.572;38.086;2022-11-20T14:54:46;11.68;98.16
67364;HTU21D;54250;45.572;38.086;2022-11-20T14:57:27;11.66;97.94
67364;HTU21D;54250;45.572;38.086;2022-11-20T15:02:41;11.47;98.13
67364;HTU21D;54250;45.572;38.086;2022-11-20T15:05:08;11.46;98.09
67364;HTU21D;54250;45.572;38.086;2022-11-20T15:07:37;11.43;97.99
67364;HTU21D;54250;45.572;38.086;2022-11-20T15:12:34;11.43;97.95
67364;HTU21D;54250;45.572;38.086;2022-11-20T15:15:02;11.52;97.81
67364;HTU21D;54250;45.572;38.086;2022-11-20T15:17:31;11.66;97.48
67364;HTU21D;54250;45.572;38.086;2022-11-20T15:19:59;11.76;97.23
67364;HTU21D;54250;45.572;38.086;2022-11-20T15:22:26;11.84;97.04
67364;HTU21D;54250;45.572;38.086;2022-11-20T15:24:52;11.89;96.99
67364;HTU21D;54250;45.572;38.086;2022-11-20T15:27:18;11.96;96.89
67364;HTU21D;54250;45.572;38.086;2022-11-20T15:29:44;12.05;96.83
67364;HTU21D;54250;45.572;38.086;2022-11-20T15:32:10;12.13;96.71
67364;HTU21D;54250;45.572;38.086;2022-11-20T15:34:36;12.18;96.66
67364;HTU21D;54250;45.572;38.086;2022-11-20T15:37:02;12.22;96.63
67364;HTU21D;54250;45.572;38.086;2022-11-20T15:39:28;12.26;96.67
67364;HTU21D;54250;45.572;38.086;2022-11-20T15:41:55;12.26;96.70
67364;HTU21D;54250;45.572;38.086;2022-11-20T15:44:21;12.28;96.76
67364;HTU21D;54250;45.572;38.086;2022-11-20T15:46:47;12.30;96.83
67364;HTU21D;54250;45.572;38.086;2022-11-20T15:49:15;12.32;96.81
67364;HTU21D;54250;45.572;38.086;2022-11-20T15:51:44;12.32;96.87
67364;HTU21D;54250;45.572;38.086;2022-11-20T15:54:14;12.30;96.94
67364;HTU21D;54250;45.572;38.086;2022-11-20T15:56:41;12.29;97.05
67364;HTU21D;54250;45.572;38.086;2022-11-20T15:59:07;12.29;97.13
67364;HTU21D;54250;45.572;38.086;2022-11-20T16:01:33;12.32;97.06
67364;HTU21D;54250;45.572;38.086;2022-11-20T16:04:00;12.31;97.15
67364;HTU21D;54250;45.572;38.086;2022-11-20T16:06:26;12.30;97.24
67364;HTU21D;54250;45.572;38.086;2022-11-20T16:08:53;12.29;97.32
67364;HTU21D;54250;45.572;38.086;2022-11-20T16:11:19;12.27;97.42
67364;HTU21D;54250;45.572;38.086;2022-11-20T16:13:45;12.28;97.51
67364;HTU21D;54250;45.572;38.086;2022-11-20T16:16:34;12.30;97.52
67364;HTU21D;54250;45.572;38.086;2022-11-20T16:19:00;12.30;97.58
67364;HTU21D;54250;45.572;38.086;2022-11-20T16:21:28;12.33;97.61
67364;HTU21D;54250;45.572;38.086;2022-11-20T16:24:02;12.42;97.53
67364;HTU21D;54250;45.572;38.086;2022-11-20T16:26:30;12.49;97.42
67364;HTU21D;54250;45.572;38.086;2022-11-20T16:28:59;12.56;97.32
67364;HTU21D;54250;45.572;38.086;2022-11-20T16:31:25;12.63;97.27
67364;HTU21D;54250;45.572;38.086;2022-11-20T16:33:53;12.72;97.10
67364;HTU21D;54250;45.572;38.086;2022-11-20T16:36:21;12.79;97.04
67364;HTU21D;54250;45.572;38.086;2022-11-20T16:38:52;12.92;96.84
67364;HTU21D;54250;45.572;38.086;2022-11-20T16:41:18;13.06;96.53
67364;HTU21D;54250;45.572;38.086;2022-11-20T16:43:52;13.16;96.33
67364;HTU21D;54250;45.572;38.086;2022-11-20T16:46:21;13.26;96.23
67364;HTU21D;54250;45.572;38.086;2022-11-20T16:48:58;13.36;96.04
67364;HTU21D;54250;45.572;38.086;2022-11-20T16:51:26;13.45;96.00
67364;HTU21D;54250;45.572;38.086;2022-11-20T16:53:53;13.51;95.97
67364;HTU21D;54250;45.572;38.086;2022-11-20T16:56:22;13.58;95.91
67364;HTU21D;54250;45.572;38.086;2022-11-20T16:58:49;13.62;95.95
67364;HTU21D;54250;45.572;38.086;2022-11-20T17:01:18;13.63;96.00
67364;HTU21D;54250;45.572;38.086;2022-11-20T17:03:57;13.66;96.04